createdAt,value
2024-03-02T00:02:44.733Z,100235.16
2024-03-02T00:05:22.771Z,100263.59
2024-03-02T00:10:58.007Z,100268.94
2024-03-02T00:13:31.092Z,100247.72
2024-03-02T00:16:01.430Z,100282.59
2024-03-02T00:21:39.207Z,100285.94
2024-03-02T00:27:26.270Z,100294.91
2024-03-02T00:29:53.240Z,100290.72
2024-03-02T00:32:20.001Z,100294.06
2024-03-02T00:34:57.928Z,100296.59
2024-03-02T00:37:30.473Z,100299.06
2024-03-02T00:40:05.478Z,100293.25
2024-03-02T00:45:39.873Z,100298.69
2024-03-02T00:48:12.023Z,100290.22
2024-03-02T00:50:38.735Z,100291.19
2024-03-02T00:53:05.444Z,100296.59
2024-03-02T00:55:48.597Z,100274.69
2024-03-02T00:58:15.296Z,100298.25
2024-03-02T01:03:22.671Z,100285.03
2024-03-02T01:05:52.500Z,100283.56
2024-03-02T01:08:21.764Z,100291.56
2024-03-02T01:11:22.494Z,100303.56
2024-03-02T01:13:53.608Z,100287.53
2024-03-02T01:16:32.503Z,100300.66
2024-03-02T01:19:02.498Z,100302.50
2024-03-02T01:21:41.313Z,100294.84
2024-03-02T01:24:07.971Z,100275.44
2024-03-02T01:26:45.999Z,100298.31
2024-03-02T01:29:12.731Z,100287.44
2024-03-02T01:31:46.174Z,100303.59
2024-03-02T01:34:17.506Z,100298.94
2024-03-02T01:36:45.123Z,100289.44
2024-03-02T01:39:14.588Z,100270.47
2024-03-02T01:44:25.227Z,100294.75
2024-03-02T01:47:02.415Z,100298.09
2024-03-02T01:49:35.389Z,100299.47
2024-03-02T01:52:34.347Z,100315.94
2024-03-02T01:55:03.506Z,100305.63
2024-03-02T01:57:56.209Z,100308.72
2024-03-02T02:00:33.723Z,100305.84
2024-03-02T02:03:07.730Z,100302.72
2024-03-02T02:05:43.685Z,100301.34
2024-03-02T02:08:16.037Z,100298.13
2024-03-02T02:10:47.984Z,100301.50
2024-03-02T02:13:14.515Z,100300.66
2024-03-02T02:15:42.638Z,100295.34
2024-03-02T02:18:25.877Z,100289.78
2024-03-02T02:20:52.493Z,100302.63
2024-03-02T02:23:38.515Z,100284.47
2024-03-02T02:26:43.175Z,100294.97
2024-03-02T02:29:00.981Z,100298.81
2024-03-02T02:31:59.799Z,100295.03
2024-03-02T02:34:40.670Z,100286.34
2024-03-02T02:37:13.214Z,100287.81
2024-03-02T02:39:52.211Z,100283.63
2024-03-02T02:42:28.175Z,100274.59
2024-03-02T02:44:57.934Z,100289.25
2024-03-02T02:47:30.953Z,100287.56
2024-03-02T02:50:12.211Z,100284.22
2024-03-02T02:52:41.191Z,100294.97
2024-03-02T02:55:09.982Z,100276.56
2024-03-02T02:57:48.436Z,100288.41
2024-03-02T03:00:21.401Z,100287.56
2024-03-02T03:02:51.568Z,100284.09
2024-03-02T03:05:22.183Z,100291.94
2024-03-02T03:07:54.733Z,100286.59
2024-03-02T03:10:23.357Z,100285.22
2024-03-02T03:12:52.942Z,100291.53
2024-03-02T03:15:30.846Z,100290.69
2024-03-02T03:17:57.571Z,100295.56
2024-03-02T03:20:24.716Z,100291.75
2024-03-02T03:22:51.325Z,100290.34
2024-03-02T03:25:33.903Z,100262.50
2024-03-02T03:28:04.410Z,100291.06
2024-03-02T03:30:34.945Z,100296.25
2024-03-02T03:33:05.509Z,100261.13
2024-03-02T03:35:50.339Z,100277.31
2024-03-02T03:41:06.945Z,100282.56
2024-03-02T03:43:33.596Z,100287.50
2024-03-02T03:46:01.873Z,100264.78
2024-03-02T03:48:32.058Z,100298.53
2024-03-02T03:50:59.151Z,100289.84
2024-03-02T03:53:25.894Z,100300.28
2024-03-02T03:55:52.582Z,100290.91
2024-03-02T03:58:25.833Z,100258.78
2024-03-02T04:01:00.123Z,100299.03
2024-03-02T04:03:26.873Z,100306.19
2024-03-02T04:05:53.899Z,100298.53
2024-03-02T04:08:23.673Z,100305.28
2024-03-02T04:11:05.944Z,100308.31
2024-03-02T04:13:41.388Z,100305.44
2024-03-02T04:16:08.016Z,100308.09
2024-03-02T04:18:37.839Z,100300.72
2024-03-02T04:21:07.298Z,100311.75
2024-03-02T04:23:49.390Z,100307.56
2024-03-02T04:26:37.891Z,100316.06
2024-03-02T04:31:45.543Z,100316.38
2024-03-02T04:34:12.186Z,100270.91
2024-03-02T04:36:38.865Z,100327.06
2024-03-02T04:39:10.971Z,100327.06
2024-03-02T04:44:18.019Z,100334.16
2024-03-02T04:46:45.065Z,100330.91
2024-03-02T04:49:14.528Z,100332.19
2024-03-02T04:51:44.557Z,100330.94
2024-03-02T04:54:11.222Z,100346.31
2024-03-02T04:56:55.827Z,100333.78
2024-03-02T04:59:47.084Z,100346.63
2024-03-02T05:02:23.860Z,100340.22
2024-03-02T05:05:00.256Z,100340.38
2024-03-02T05:10:07.943Z,100337.19
2024-03-02T05:15:37.598Z,100358.28
2024-03-02T05:18:16.658Z,100360.69
2024-03-02T05:20:58.452Z,100356.19
2024-03-02T05:23:25.692Z,100358.47
2024-03-02T05:25:57.804Z,100363.59
2024-03-02T05:28:24.491Z,100363.59
2024-03-02T05:30:57.334Z,100369.63
2024-03-02T05:33:36.386Z,100364.06
2024-03-02T05:36:05.994Z,100370.22
2024-03-02T05:38:36.033Z,100368.16
2024-03-02T05:41:03.165Z,100366.63
2024-03-02T05:43:35.554Z,100367.19
2024-03-02T05:46:02.508Z,100374.69
2024-03-02T05:48:29.286Z,100386.84
2024-03-02T05:50:58.233Z,100388.84
2024-03-02T05:53:24.845Z,100387.84
2024-03-02T05:55:56.205Z,100379.47
2024-03-02T05:58:44.457Z,100381.56
2024-03-02T06:01:11.184Z,100395.72
2024-03-02T06:03:37.843Z,100393.59
2024-03-02T06:06:04.786Z,100392.22
2024-03-02T06:08:37.507Z,100397.78
2024-03-02T06:11:04.322Z,100395.13
2024-03-02T06:13:31.264Z,100404.09
2024-03-02T06:16:08.523Z,100409.13
2024-03-02T06:18:35.701Z,100405.06
2024-03-02T06:21:17.552Z,100401.13
2024-03-02T06:23:53.142Z,100406.75
2024-03-02T06:26:31.803Z,100408.28
2024-03-02T06:29:13.265Z,100411.47
2024-03-02T06:31:50.047Z,100421.28
2024-03-02T06:34:20.694Z,100412.47
2024-03-02T06:36:50.515Z,100421.97
2024-03-02T06:39:23.590Z,100419.16
2024-03-02T06:42:12.972Z,100418.19
2024-03-02T06:44:39.558Z,100407.44
2024-03-02T06:47:09.038Z,100425.16
2024-03-02T06:49:38.489Z,100420.25
2024-03-02T06:52:08.267Z,100433.25
2024-03-02T06:54:38.012Z,100436.22
2024-03-02T06:57:13.678Z,100428.63
2024-03-02T06:59:40.433Z,100434.78
2024-03-02T07:02:16.658Z,100444.59
2024-03-02T07:04:43.516Z,100447.94
2024-03-02T07:07:11.709Z,100437.88
2024-03-02T07:09:39.033Z,100458.56
2024-03-02T07:12:17.634Z,100444.72
2024-03-02T07:17:56.139Z,100430.78
2024-03-02T07:20:32.255Z,100446.81
2024-03-02T07:22:59.077Z,100466.25
2024-03-02T07:27:57.220Z,100475.88
2024-03-02T07:30:28.997Z,100470.56
2024-03-02T07:33:00.489Z,100473.75
2024-03-02T07:35:35.472Z,100461.63
2024-03-02T07:38:02.862Z,100479.66
2024-03-02T07:40:29.692Z,100474.03
2024-03-02T07:42:58.254Z,100462.59
2024-03-02T07:45:25.097Z,100478.41
2024-03-02T07:48:07.447Z,100481.44
2024-03-02T07:50:42.582Z,100466.66
2024-03-02T07:53:14.078Z,100484.94
2024-03-02T07:55:50.830Z,100485.69
2024-03-02T07:58:31.759Z,100494.59
2024-03-02T08:01:01.063Z,100487.59
2024-03-02T08:03:30.855Z,100495.69
2024-03-02T08:05:59.278Z,100501.47
2024-03-02T08:08:26.508Z,100507.44
2024-03-02T08:10:53.215Z,100467.22
2024-03-02T08:13:22.609Z,100514.59
2024-03-02T08:16:09.926Z,100479.97
2024-03-02T08:18:36.956Z,100505.91
2024-03-02T08:21:04.028Z,100501.59
2024-03-02T08:23:34.068Z,100509.13
2024-03-02T08:26:10.051Z,100521.81
2024-03-02T08:28:45.969Z,100514.84
2024-03-02T08:31:15.346Z,100524.03
2024-03-02T08:33:45.589Z,100527.56
2024-03-02T08:36:16.454Z,100523.59
2024-03-02T08:38:43.264Z,100528.63
2024-03-02T08:43:51.034Z,100531.97
2024-03-02T08:46:17.871Z,100542.63
2024-03-02T08:48:50.690Z,100542.94
2024-03-02T08:51:27.862Z,100532.41
2024-03-02T08:53:54.748Z,100548.63
2024-03-02T08:56:32.143Z,100541.34
2024-03-02T08:58:59.189Z,100534.81
2024-03-02T09:01:43.136Z,100544.31
2024-03-02T09:04:15.952Z,100523.09
2024-03-02T09:06:46.515Z,100543.00
2024-03-02T09:09:13.399Z,100542.34
2024-03-02T09:11:40.206Z,100541.25
2024-03-02T09:14:10.912Z,100541.66
2024-03-02T09:17:07.640Z,100559.41
2024-03-02T09:19:40.877Z,100545.09
2024-03-02T09:22:28.618Z,100551.34
2024-03-02T09:25:01.792Z,100557.50
2024-03-02T09:27:29.840Z,100555.53
2024-03-02T09:29:56.925Z,100568.84
2024-03-02T09:32:41.461Z,100535.88
2024-03-02T09:35:14.407Z,100550.66
2024-03-02T09:37:43.249Z,100559.34
2024-03-02T09:40:10.788Z,100555.09
2024-03-02T09:42:47.084Z,100535.31
2024-03-02T09:45:18.447Z,100551.38
2024-03-02T09:47:48.405Z,100536.66
2024-03-02T09:50:15.735Z,100548.25
2024-03-02T09:52:58.938Z,100559.22
2024-03-02T09:55:31.256Z,100564.84
2024-03-02T09:58:02.088Z,100537.59
2024-03-02T10:00:35.324Z,100567.72
2024-03-02T10:03:14.952Z,100564.59
2024-03-02T10:05:46.072Z,100561.34
2024-03-02T10:08:15.182Z,100573.56
2024-03-02T10:10:45.269Z,100574.34
2024-03-02T10:13:15.283Z,100575.47
2024-03-02T10:15:46.355Z,100539.34
2024-03-02T10:18:45.716Z,100570.31
2024-03-02T10:21:16.330Z,100569.25
2024-03-02T10:23:47.161Z,100580.59
2024-03-02T10:26:33.004Z,100577.25
2024-03-02T10:29:03.530Z,100579.03
2024-03-02T10:31:33.621Z,100534.66
2024-03-02T10:34:04.482Z,100583.75
2024-03-02T10:36:39.061Z,100576.38
2024-03-02T10:39:07.662Z,100586.38
2024-03-02T10:41:36.766Z,100562.63
2024-03-02T10:44:08.669Z,100574.34
2024-03-02T10:46:40.056Z,100586.66
2024-03-02T10:49:08.913Z,100581.88
2024-03-02T10:51:38.112Z,100575.03
2024-03-02T10:54:17.405Z,100580.72
2024-03-02T10:56:50.298Z,100567.41
2024-03-02T10:59:42.132Z,100587.84
2024-03-02T11:02:13.749Z,100584.50
2024-03-02T11:04:45.703Z,100574.41
2024-03-02T11:07:17.821Z,100564.84
2024-03-02T11:10:02.329Z,100568.50
2024-03-02T11:12:58.233Z,100568.94
2024-03-02T11:15:48.572Z,100569.97
2024-03-02T11:20:58.098Z,100556.03
2024-03-02T11:23:37.091Z,100546.25
2024-03-02T11:26:22.971Z,100545.16
2024-03-02T11:28:53.229Z,100548.91
2024-03-02T11:31:21.899Z,100558.19
2024-03-02T11:33:51.716Z,100549.41
2024-03-02T11:36:26.088Z,100538.22
2024-03-02T11:39:03.396Z,100542.84
2024-03-02T11:41:35.324Z,100557.56
2024-03-02T11:44:05.566Z,100539.69
2024-03-02T11:46:32.188Z,100547.03
2024-03-02T11:49:03.568Z,100534.97
2024-03-02T11:51:33.008Z,100542.72
2024-03-02T11:54:07.602Z,100536.19
2024-03-02T11:56:46.187Z,100524.13
2024-03-02T11:59:23.298Z,100536.00
2024-03-02T12:01:56.955Z,100534.34
2024-03-02T12:04:27.871Z,100533.41
2024-03-02T12:07:13.137Z,100527.75
2024-03-02T12:09:46.978Z,100513.41
2024-03-02T12:12:43.323Z,100524.44
2024-03-02T12:15:13.177Z,100528.44
2024-03-02T12:17:40.349Z,100523.91
2024-03-02T12:20:18.868Z,100525.06
2024-03-02T12:25:50.382Z,100467.50
2024-03-02T12:28:17.585Z,100507.31
2024-03-02T12:30:50.419Z,100513.41
2024-03-02T12:33:28.852Z,100520.75
2024-03-02T12:36:07.101Z,100503.22
2024-03-02T12:38:34.001Z,100505.06
2024-03-02T12:41:05.806Z,100508.81
2024-03-02T12:43:40.843Z,100493.03
2024-03-02T12:46:16.697Z,100483.66
2024-03-02T12:48:44.977Z,100473.66
2024-03-02T12:51:12.069Z,100500.06
2024-03-02T12:53:47.602Z,100497.06
2024-03-02T12:56:33.194Z,100496.88
2024-03-02T12:59:00.730Z,100477.09
2024-03-02T13:01:31.046Z,100491.84
2024-03-02T13:04:02.652Z,100489.66
2024-03-02T13:06:34.958Z,100471.97
2024-03-02T13:09:04.817Z,100488.53
2024-03-02T13:11:34.784Z,100477.50
2024-03-02T13:14:01.778Z,100476.03
2024-03-02T13:16:33.274Z,100466.72
2024-03-02T13:19:12.207Z,100478.91
2024-03-02T13:21:44.970Z,100469.53
2024-03-02T13:24:15.107Z,100483.75
2024-03-02T13:26:41.918Z,100475.75
2024-03-02T13:29:11.295Z,100479.41
2024-03-02T13:31:37.954Z,100489.75
2024-03-02T13:34:04.753Z,100469.25
2024-03-02T13:36:40.819Z,100489.75
2024-03-02T13:39:14.717Z,100502.59
2024-03-02T13:41:53.868Z,100496.53
2024-03-02T13:44:20.941Z,100493.72
2024-03-02T13:46:48.294Z,100493.88
2024-03-02T13:49:19.705Z,100488.66
2024-03-02T13:52:01.775Z,100485.03
2024-03-02T13:54:28.437Z,100477.06
2024-03-02T13:56:55.194Z,100484.25
2024-03-02T14:02:09.867Z,100484.59
2024-03-02T14:04:40.403Z,100447.84
2024-03-02T14:07:12.119Z,100477.94
2024-03-02T14:09:39.182Z,100476.09
2024-03-02T14:12:06.961Z,100478.41
2024-03-02T14:14:34.059Z,100486.78
2024-03-02T14:17:04.786Z,100484.59
2024-03-02T14:19:31.980Z,100483.44
2024-03-02T14:22:01.944Z,100481.09
2024-03-02T14:24:31.026Z,100481.31
2024-03-02T14:27:10.228Z,100480.94
2024-03-02T14:29:45.191Z,100498.44
2024-03-02T14:32:17.449Z,100500.69
2024-03-02T14:34:45.463Z,100476.25
2024-03-02T14:37:17.320Z,100489.44
2024-03-02T14:39:48.214Z,100486.44
2024-03-02T14:42:14.917Z,100479.75
2024-03-02T14:44:44.680Z,100473.28
2024-03-02T14:47:11.768Z,100486.16
2024-03-02T14:49:48.706Z,100481.97
2024-03-02T14:52:18.760Z,100493.69
2024-03-02T14:54:48.173Z,100463.22
2024-03-02T14:57:17.780Z,100492.47
2024-03-02T14:59:44.616Z,100501.84
2024-03-02T15:02:11.362Z,100499.81
2024-03-02T15:04:38.584Z,100472.88
2024-03-02T15:07:08.388Z,100486.09
2024-03-02T15:09:36.839Z,100496.09
2024-03-02T15:12:04.293Z,100516.22
2024-03-02T15:14:31.637Z,100511.22
2024-03-02T15:17:01.561Z,100500.53
2024-03-02T15:19:28.260Z,100503.16
2024-03-02T15:21:56.750Z,100514.88
2024-03-02T15:24:26.733Z,100504.78
2024-03-02T15:26:53.558Z,100503.81
2024-03-02T15:29:23.472Z,100507.47
2024-03-02T15:34:34.551Z,100518.53
2024-03-02T15:37:04.652Z,100512.13
2024-03-02T15:39:44.286Z,100514.78
2024-03-02T15:42:14.220Z,100522.75
2024-03-02T15:45:05.719Z,100524.88
2024-03-02T15:47:44.591Z,100517.97
2024-03-02T15:50:15.986Z,100522.75
2024-03-02T15:52:48.785Z,100525.56
2024-03-02T15:55:15.682Z,100527.94
2024-03-02T15:57:45.516Z,100523.41
2024-03-02T16:00:18.514Z,100524.59
2024-03-02T16:02:45.274Z,100516.53
2024-03-02T16:05:15.750Z,100526.56
2024-03-02T16:07:47.123Z,100524.72
2024-03-02T16:10:35.566Z,100530.72
2024-03-02T16:13:15.935Z,100506.31
2024-03-02T16:15:57.564Z,100497.94
2024-03-02T16:18:24.512Z,100519.66
2024-03-02T16:20:51.157Z,100522.03
2024-03-02T16:23:19.004Z,100519.66
2024-03-02T16:25:45.543Z,100530.34
2024-03-02T16:28:18.166Z,100515.31
2024-03-02T16:30:55.027Z,100532.66
2024-03-02T16:34:32.674Z,100539.16
2024-03-02T16:37:47.790Z,100531.63
2024-03-02T16:43:15.633Z,100540.50
2024-03-02T16:45:42.307Z,100496.84
2024-03-02T16:48:09.384Z,100504.03
2024-03-02T16:50:36.259Z,100525.75
2024-03-02T16:53:08.951Z,100532.13
2024-03-02T16:55:43.465Z,100532.44
2024-03-02T16:58:11.184Z,100538.59
2024-03-02T17:03:12.919Z,100544.25
2024-03-02T17:05:40.512Z,100543.91
2024-03-02T17:08:10.329Z,100542.72
2024-03-02T17:10:47.296Z,100552.56
2024-03-02T17:13:14.051Z,100543.50
2024-03-02T17:15:46.938Z,100555.47
2024-03-02T17:18:16.470Z,100565.00
2024-03-02T17:20:47.356Z,100556.06
2024-03-02T17:23:17.563Z,100571.72
2024-03-02T17:25:54.098Z,100557.97
2024-03-02T17:28:33.063Z,100581.34
2024-03-02T17:31:01.093Z,100561.81
2024-03-02T17:33:27.822Z,100575.63
2024-03-02T17:35:55.385Z,100567.69
2024-03-02T17:38:34.841Z,100579.38
2024-03-02T17:41:07.890Z,100583.19
2024-03-02T17:43:47.958Z,100581.50
2024-03-02T17:46:14.759Z,100576.78
2024-03-02T17:48:44.650Z,100594.44
2024-03-02T17:51:14.516Z,100591.78
2024-03-02T17:53:41.319Z,100588.28
2024-03-02T17:56:11.520Z,100592.09
2024-03-02T17:58:44.818Z,100597.28
2024-03-02T18:01:19.326Z,100605.41
2024-03-02T18:03:51.100Z,100605.72
2024-03-02T18:06:49.519Z,100602.97
2024-03-02T18:09:16.684Z,100570.88
2024-03-02T18:12:08.135Z,100593.63
2024-03-02T18:14:41.202Z,100572.84
2024-03-02T18:17:11.027Z,100617.00
2024-03-02T18:19:37.682Z,100606.78
2024-03-02T18:22:22.818Z,100618.19
2024-03-02T18:25:02.083Z,100614.84
2024-03-02T18:27:38.989Z,100620.03
2024-03-02T18:30:29.403Z,100615.47
2024-03-02T18:32:56.634Z,100615.75
2024-03-02T18:35:31.879Z,100614.91
2024-03-02T18:38:05.609Z,100604.56
2024-03-02T18:40:32.285Z,100618.97
2024-03-02T18:43:07.554Z,100597.03
2024-03-02T18:45:37.498Z,100609.66
2024-03-02T18:48:04.873Z,100619.72
2024-03-02T18:50:31.910Z,100617.81
2024-03-02T18:53:01.633Z,100601.41
2024-03-02T18:55:28.507Z,100608.22
2024-03-02T18:58:01.479Z,100595.75
2024-03-02T19:00:32.453Z,100583.63
2024-03-02T19:03:02.647Z,100592.00
2024-03-02T19:05:32.539Z,100599.31
2024-03-02T19:07:59.698Z,100599.59
2024-03-02T19:10:36.524Z,100584.84
2024-03-02T19:15:43.658Z,100626.28
2024-03-02T19:18:24.950Z,100613.72
2024-03-02T19:20:52.557Z,100615.69
2024-03-02T19:23:25.590Z,100620.47
2024-03-02T19:25:58.889Z,100614.88
2024-03-02T19:28:28.581Z,100613.91
2024-03-02T19:30:55.484Z,100606.63
2024-03-02T19:33:25.194Z,100590.97
2024-03-02T19:35:56.434Z,100610.03
2024-03-02T19:41:18.773Z,100598.03
2024-03-02T19:46:40.087Z,100602.88
2024-03-02T19:49:29.048Z,100605.53
2024-03-02T19:52:01.157Z,100614.63
2024-03-02T19:54:33.359Z,100594.50
2024-03-02T19:57:03.387Z,100609.56
2024-03-02T19:59:30.195Z,100604.53
2024-03-02T20:01:57.038Z,100594.78
2024-03-02T20:05:08.019Z,100599.97
2024-03-02T20:07:46.718Z,100597.63
2024-03-02T20:12:58.430Z,100623.94
2024-03-02T20:15:25.100Z,100619.50
2024-03-02T20:18:01.505Z,100611.13
2024-03-02T20:20:42.407Z,100616.72
2024-03-02T20:23:09.124Z,100624.41
2024-03-02T20:25:35.772Z,100611.00
2024-03-02T20:28:13.247Z,100624.00
2024-03-02T20:30:42.035Z,100631.84
2024-03-02T20:33:08.802Z,100629.06
2024-03-02T20:36:00.306Z,100608.63
2024-03-02T20:38:34.495Z,100617.31
2024-03-02T20:41:03.947Z,100615.34
2024-03-02T20:43:30.925Z,100610.59
2024-03-02T20:45:58.453Z,100603.31
2024-03-02T20:51:22.641Z,100606.13
2024-03-02T20:54:24.736Z,100592.88
2024-03-02T20:56:53.003Z,100594.09
2024-03-02T20:59:19.856Z,100588.38
2024-03-02T21:01:49.647Z,100588.78
2024-03-02T21:04:34.610Z,100567.44
2024-03-02T21:07:01.391Z,100576.78
2024-03-02T21:09:28.208Z,100618.06
2024-03-02T21:11:55.047Z,100592.03
2024-03-02T21:14:24.475Z,100588.78
2024-03-02T21:16:51.993Z,100595.06
2024-03-02T21:19:28.087Z,100591.31
2024-03-02T21:21:56.364Z,100595.63
2024-03-02T21:24:23.002Z,100602.19
2024-03-02T21:26:50.991Z,100586.50
2024-03-02T21:29:21.377Z,100596.19
2024-03-02T21:32:09.216Z,100597.97
2024-03-02T21:34:36.191Z,100604.84
2024-03-02T21:37:12.820Z,100599.81
2024-03-02T21:39:43.537Z,100593.78
2024-03-02T21:42:14.075Z,100603.06
2024-03-02T21:44:40.771Z,100600.00
2024-03-02T21:47:10.629Z,100592.28
2024-03-02T21:50:28.983Z,100598.59
2024-03-02T21:53:05.128Z,100602.22
2024-03-02T21:55:49.861Z,100599.44
2024-03-02T21:58:37.095Z,100603.78
2024-03-02T22:01:07.130Z,100601.81
2024-03-02T22:03:46.570Z,100599.31
2024-03-02T22:06:19.766Z,100603.13
2024-03-02T22:08:46.754Z,100617.53
2024-03-02T22:11:16.581Z,100600.19
2024-03-02T22:13:43.272Z,100604.50
2024-03-02T22:16:10.026Z,100602.53
2024-03-02T22:18:37.714Z,100612.47
2024-03-02T22:21:19.330Z,100610.94
2024-03-02T22:23:48.513Z,100616.41
2024-03-02T22:26:17.429Z,100612.88
2024-03-02T22:28:49.698Z,100617.38
2024-03-02T22:31:24.985Z,100581.28
2024-03-02T22:33:51.610Z,100622.69
2024-03-02T22:36:28.791Z,100616.66
2024-03-02T22:38:55.390Z,100613.75
2024-03-02T22:41:22.006Z,100610.38
2024-03-02T22:46:58.733Z,100598.78
2024-03-02T22:49:35.150Z,100592.22
2024-03-02T22:52:01.991Z,100587.44
2024-03-02T22:54:32.374Z,100591.63
2024-03-02T22:57:07.411Z,100582.13
2024-03-02T22:59:40.208Z,100585.34
2024-03-02T23:02:10.779Z,100594.41
2024-03-02T23:04:37.453Z,100590.91
2024-03-02T23:07:04.336Z,100600.00
2024-03-02T23:09:37.574Z,100597.47
2024-03-02T23:12:04.774Z,100600.13
2024-03-02T23:14:31.540Z,100592.06
2024-03-02T23:17:01.253Z,100600.56
2024-03-02T23:22:36.340Z,100603.81
2024-03-02T23:25:03.280Z,100595.84
2024-03-02T23:27:29.992Z,100581.44
2024-03-02T23:29:56.610Z,100599.06
2024-03-02T23:32:23.897Z,100602.97
2024-03-02T23:34:59.812Z,100591.78
2024-03-02T23:37:26.674Z,100600.31
2024-03-02T23:40:02.426Z,100601.44
2024-03-02T23:42:38.614Z,100591.22
2024-03-02T23:45:05.607Z,100597.38
2024-03-02T23:47:44.719Z,100601.44
2024-03-02T23:50:17.073Z,100597.22
2024-03-02T23:52:56.081Z,100596.53
2024-03-02T23:55:24.324Z,100590.25
2024-03-02T23:57:55.427Z,100599.47
